Bayle, Illinois
Current Conditions -  °F | °C
As of 9:35 AM on Saturday 25 Oct 2014 (Local Time) from K1H2 Reporting Station
Clear Clear  
Wind Chill: 18°   Ceiling: Unl
Heat Index: 18°   Visibility: 10mi
Dew Point: 14°   Wind: 5mph
Humidity: 77%   Direction: 290°WNW
Pressure: 30.03"   Gusts: NA
Location:  39.1031°N, 89.1042°W
Report Text: K1H2 251435Z AUTO 29004KT 10SM CLR 18/14 A3003 RMK AO2 T01800139
Loading
Personal Weather Stations






























Interactive Weather Map
Tropical Storm Tracking
New forecast layout! Learn more

10-Day Weather Forecast

Advertisements
Track Severe Weather on mobile